Cosco Kaohsiung — VREM3 — position and weather

sailwx.info

Track history (hours):
 
Tides and Currents Weather Stations Pressure Air Temp Water Temp Dewpoint Dewpoint Depression Visibility Wind Speed Wind Dir Waves Ship Positions

Cosco Kaohsiung

Last reported at 2016-Jun-17 13:16 UTC. Time now 2016-Jun-25 16:09 UTC.
Position N 48°39' W 126°41'.
Warning: this ship's position is 8 days out of date.

Length 349 m; draft 10.6 m.

Type: Ship (hazmat cat A). MMSI: 477136800.

Date/timePositionNaut miles runAvg speedWind from/ knotsBaromVisibWave heightAir tempDewpointWater temp
2016-Jun-17 13:16N 48°39' W 126°41'710.4
2016-Jun-17 12:33N 48°38' W 126°30'1010.5
2016-Jun-17 11:33N 48°37' W 126°14'1110.5
2016-Jun-17 10:33N 48°36' W 125°58'1110.8
2016-Jun-17 09:33N 48°34' W 125°42'1110.7
2016-Jun-17 08:33N 48°33' W 125°26'1111.0
2016-Jun-17 07:32N 48°31' W 125°09'1110.8
2016-Jun-17 06:33N 48°31' W 124°53'1110.5
2016-Jun-17 05:33N 48°29' W 124°38'1111.5
2016-Jun-17 04:34N 48°25' W 124°22'1211.6
2016-Jun-17 03:33N 48°20' W 124°06'1111.4
2016-Jun-17 02:33N 48°17' W 123°50'1111.4
2016-Jun-17 01:34N 48°15' W 123°33'1010.1
2016-Jun-17 00:34N 48°08' W 123°22'1817.6
2016-Jun-16 23:33N 48°12' W 122°56'1616.5
2016-Jun-16 22:33N 48°01' W 122°37'1717.3
2016-Jun-16 21:33N 47°46' W 122°27'1111.3
2016-Jun-16 20:33N 47°35' W 122°21'0 0.2
2016-Jun-16 19:33N 47°35' W 122°21'0 0.0
2016-Jun-16 18:32N 47°35' W 122°21'0 0.0
2016-Jun-16 17:33N 47°35' W 122°21'0 0.0
2016-Jun-16 16:32N 47°35' W 122°21'0 0.0
2016-Jun-16 15:30N 47°35' W 122°21'0 0.0
2016-Jun-16 14:32N 47°35' W 122°21'0 0.0
2016-Jun-16 13:33N 47°35' W 122°21'0 0.0
2016-Jun-16 12:32N 47°35' W 122°21'0 0.0
2016-Jun-16 11:32N 47°35' W 122°21'0 0.0
2016-Jun-16 10:30N 47°35' W 122°21'0 0.0
2016-Jun-16 09:33N 47°35' W 122°21'0 0.0
2016-Jun-16 08:32N 47°35' W 122°21'0 0.0
2016-Jun-16 07:33N 47°35' W 122°21'0 0.0
2016-Jun-16 06:33N 47°35' W 122°21'0 0.0
2016-Jun-16 05:32N 47°35' W 122°21'0 0.0
2016-Jun-16 04:33N 47°35' W 122°21'0 0.0
2016-Jun-16 03:32N 47°35' W 122°21'0 0.0
2016-Jun-16 02:33N 47°35' W 122°21'0 0.0
2016-Jun-16 01:33N 47°35' W 122°21'0 0.0
2016-Jun-16 00:33N 47°35' W 122°21'0 0.0
2016-Jun-15 23:33N 47°35' W 122°21'1 0.8
2016-Jun-15 22:33N 47°36' W 122°21'5 5.2
2016-Jun-15 21:33N 47°39' W 122°27'1313.4
2016-Jun-15 20:34N 47°52' W 122°29'1818.2
2016-Jun-15 19:33N 48°08' W 122°42'1818.2
2016-Jun-15 18:33N 48°12' W 123°09'1414.0
2016-Jun-15 17:33N 48°12' W 123°29'1211.6
2016-Jun-15 16:32N 48°14' W 123°47'1111.5
2016-Jun-15 15:33N 48°16' W 124°04'1212.5
2016-Jun-15 14:33N 48°21' W 124°21'1312.7
2016-Jun-15 13:34N 48°27' W 124°38'1212.1
2016-Jun-15 12:32N 48°28' W 124°56'1212.0
2016-Jun-15 11:33N 48°18' W 125°07'1413.1
2016-Jun-15 10:31N 48°06' W 125°16'6513.1
2016-Jun-15 05:34N 47°02' W 125°18'1313.3
2016-Jun-15 04:34N 46°48' W 125°18'1211.7
2016-Jun-15 03:34N 46°37' W 125°18'1313.2
2016-Jun-15 02:33N 46°23' W 125°17'1313.3
2016-Jun-15 01:34N 46°10' W 125°17'1414.3
2016-Jun-15 00:33N 45°56' W 125°17'1212.3
2016-Jun-14 23:34N 45°43' W 125°16'1313.2
2016-Jun-14 22:33N 45°30' W 125°16'41912.3
2016-Jun-13 12:33N 38°35' W 124°06'1211.7
2016-Jun-13 11:33N 38°24' W 124°01'1111.5
2016-Jun-13 10:33N 38°13' W 123°55'1211.8
2016-Jun-13 09:33N 38°02' W 123°50'1212.2
2016-Jun-13 08:33N 37°51' W 123°43'1312.6
2016-Jun-13 07:33N 37°39' W 123°37'1312.8
2016-Jun-13 06:33N 37°28' W 123°29'1312.8
2016-Jun-13 05:33N 37°18' W 123°21'1313.0
2016-Jun-13 04:33N 37°07' W 123°12'1312.8
2016-Jun-13 03:32N 36°56' W 123°03'1212.7
2016-Jun-13 02:34N 36°45' W 122°55'1312.9
2016-Jun-13 01:34N 36°34' W 122°46'1312.9
2016-Jun-13 00:33N 36°23' W 122°37'1312.7
2016-Jun-12 23:34N 36°13' W 122°29'1312.7
2016-Jun-12 22:34N 36°02' W 122°21'1312.7
2016-Jun-12 21:33N 35°51' W 122°12'1313.1
2016-Jun-12 20:33N 35°40' W 122°03'1312.8
2016-Jun-12 19:34N 35°29' W 121°55'1313.0
2016-Jun-12 18:33N 35°18' W 121°46'2612.9
2016-Jun-12 16:34N 34°57' W 121°29'1412.5
2016-Jun-12 15:26N 34°45' W 121°20'  
2016-Jun-08 21:08N 33°44' W 118°12'0 0.1
2016-Jun-08 20:26N 33°44' W 118°12'0 0.0
2016-Jun-08 19:32N 33°44' W 118°12'0 0.1
2016-Jun-08 18:32N 33°44' W 118°12'0 0.1
2016-Jun-08 17:32N 33°44' W 118°12'0 0.0
2016-Jun-08 16:32N 33°44' W 118°12'0 0.0
2016-Jun-08 15:32N 33°44' W 118°12'0 0.0
2016-Jun-08 14:32N 33°44' W 118°12'0 0.0
2016-Jun-08 13:32N 33°44' W 118°12'0 0.0
2016-Jun-08 12:29N 33°44' W 118°12'1 0.6
2016-Jun-08 11:34N 33°44' W 118°12'6 6.0
2016-Jun-08 10:34N 33°38' W 118°13'9 9.5
2016-Jun-08 09:34N 33°38' W 118°25'1211.7
2016-Jun-08 08:33N 33°43' W 118°37'1111.2
2016-Jun-08 07:32N 33°49' W 118°49'2812.5
2016-Jun-08 05:18N 34°03' W 119°18'8714.2
2016-Jun-07 23:10N 34°26' W 120°60'1014.3
2016-Jun-07 22:28N 34°29' W 121°11'1313.9
2016-Jun-07 21:33N 34°31' W 121°26'1414.3
2016-Jun-07 20:33N 34°34' W 121°43'1714.3
2016-Jun-07 19:22N 34°38' W 122°04'1315.9
2016-Jun-07 18:33N 34°40' W 122°19'1615.5
2016-Jun-07 17:34N 34°43' W 122°37'1413.0
2016-Jun-07 16:29N 34°46' W 122°54'1415.2
2016-Jun-07 15:33N 34°49' W 123°11'1615.1
2016-Jun-07 14:31N 34°53' W 123°29'1815.0
2016-Jun-07 13:20N 34°57' W 123°51'  
Track history (hours):
 
Tides and Currents Weather Stations Pressure Air Temp Water Temp Dewpoint Dewpoint Depression Visibility Wind Speed Wind Dir Waves Ship Positions

Cosco Kaohsiung

Last reported at 2016-Jun-17 13:16 UTC. Time now 2016-Jun-25 16:09 UTC.
Position N 48°39' W 126°41'.
Warning: this ship's position is 8 days out of date.

Length 349 m; draft 10.6 m.

Type: Ship (hazmat cat A). MMSI: 477136800.

Date/timePositionNaut miles runAvg speedWind from/ knotsBaromVisibWave heightAir tempDewpointWater temp
2016-Jun-17 13:16N 48°39' W 126°41'710.4
2016-Jun-17 12:33N 48°38' W 126°30'1010.5
2016-Jun-17 11:33N 48°37' W 126°14'1110.5
2016-Jun-17 10:33N 48°36' W 125°58'1110.8
2016-Jun-17 09:33N 48°34' W 125°42'1110.7
2016-Jun-17 08:33N 48°33' W 125°26'1111.0
2016-Jun-17 07:32N 48°31' W 125°09'1110.8
2016-Jun-17 06:33N 48°31' W 124°53'1110.5
2016-Jun-17 05:33N 48°29' W 124°38'1111.5
2016-Jun-17 04:34N 48°25' W 124°22'1211.6
2016-Jun-17 03:33N 48°20' W 124°06'1111.4
2016-Jun-17 02:33N 48°17' W 123°50'1111.4
2016-Jun-17 01:34N 48°15' W 123°33'1010.1
2016-Jun-17 00:34N 48°08' W 123°22'1817.6
2016-Jun-16 23:33N 48°12' W 122°56'1616.5
2016-Jun-16 22:33N 48°01' W 122°37'1717.3
2016-Jun-16 21:33N 47°46' W 122°27'1111.3
2016-Jun-16 20:33N 47°35' W 122°21'0 0.2
2016-Jun-16 19:33N 47°35' W 122°21'0 0.0
2016-Jun-16 18:32N 47°35' W 122°21'0 0.0
2016-Jun-16 17:33N 47°35' W 122°21'0 0.0
2016-Jun-16 16:32N 47°35' W 122°21'0 0.0
2016-Jun-16 15:30N 47°35' W 122°21'0 0.0
2016-Jun-16 14:32N 47°35' W 122°21'0 0.0
2016-Jun-16 13:33N 47°35' W 122°21'0 0.0
2016-Jun-16 12:32N 47°35' W 122°21'0 0.0
2016-Jun-16 11:32N 47°35' W 122°21'0 0.0
2016-Jun-16 10:30N 47°35' W 122°21'0 0.0
2016-Jun-16 09:33N 47°35' W 122°21'0 0.0
2016-Jun-16 08:32N 47°35' W 122°21'0 0.0
2016-Jun-16 07:33N 47°35' W 122°21'0 0.0
2016-Jun-16 06:33N 47°35' W 122°21'0 0.0
2016-Jun-16 05:32N 47°35' W 122°21'0 0.0
2016-Jun-16 04:33N 47°35' W 122°21'0 0.0
2016-Jun-16 03:32N 47°35' W 122°21'0 0.0
2016-Jun-16 02:33N 47°35' W 122°21'0 0.0
2016-Jun-16 01:33N 47°35' W 122°21'0 0.0
2016-Jun-16 00:33N 47°35' W 122°21'0 0.0
2016-Jun-15 23:33N 47°35' W 122°21'1 0.8
2016-Jun-15 22:33N 47°36' W 122°21'5 5.2
2016-Jun-15 21:33N 47°39' W 122°27'1313.4
2016-Jun-15 20:34N 47°52' W 122°29'1818.2
2016-Jun-15 19:33N 48°08' W 122°42'1818.2
2016-Jun-15 18:33N 48°12' W 123°09'1414.0
2016-Jun-15 17:33N 48°12' W 123°29'1211.6
2016-Jun-15 16:32N 48°14' W 123°47'1111.5
2016-Jun-15 15:33N 48°16' W 124°04'1212.5
2016-Jun-15 14:33N 48°21' W 124°21'1312.7
2016-Jun-15 13:34N 48°27' W 124°38'1212.1
2016-Jun-15 12:32N 48°28' W 124°56'1212.0
2016-Jun-15 11:33N 48°18' W 125°07'1413.1
2016-Jun-15 10:31N 48°06' W 125°16'6513.1
2016-Jun-15 05:34N 47°02' W 125°18'1313.3
2016-Jun-15 04:34N 46°48' W 125°18'1211.7
2016-Jun-15 03:34N 46°37' W 125°18'1313.2
2016-Jun-15 02:33N 46°23' W 125°17'1313.3
2016-Jun-15 01:34N 46°10' W 125°17'1414.3
2016-Jun-15 00:33N 45°56' W 125°17'1212.3
2016-Jun-14 23:34N 45°43' W 125°16'1313.2
2016-Jun-14 22:33N 45°30' W 125°16'41912.3
2016-Jun-13 12:33N 38°35' W 124°06'1211.7
2016-Jun-13 11:33N 38°24' W 124°01'1111.5
2016-Jun-13 10:33N 38°13' W 123°55'1211.8
2016-Jun-13 09:33N 38°02' W 123°50'1212.2
2016-Jun-13 08:33N 37°51' W 123°43'1312.6
2016-Jun-13 07:33N 37°39' W 123°37'1312.8
2016-Jun-13 06:33N 37°28' W 123°29'1312.8
2016-Jun-13 05:33N 37°18' W 123°21'1313.0
2016-Jun-13 04:33N 37°07' W 123°12'1312.8
2016-Jun-13 03:32N 36°56' W 123°03'1212.7
2016-Jun-13 02:34N 36°45' W 122°55'1312.9
2016-Jun-13 01:34N 36°34' W 122°46'1312.9
2016-Jun-13 00:33N 36°23' W 122°37'1312.7
2016-Jun-12 23:34N 36°13' W 122°29'1312.7
2016-Jun-12 22:34N 36°02' W 122°21'1312.7
2016-Jun-12 21:33N 35°51' W 122°12'1313.1
2016-Jun-12 20:33N 35°40' W 122°03'1312.8
2016-Jun-12 19:34N 35°29' W 121°55'1313.0
2016-Jun-12 18:33N 35°18' W 121°46'2612.9
2016-Jun-12 16:34N 34°57' W 121°29'1412.5
2016-Jun-12 15:26N 34°45' W 121°20'  
2016-Jun-08 21:08N 33°44' W 118°12'0 0.1
2016-Jun-08 20:26N 33°44' W 118°12'0 0.0
2016-Jun-08 19:32N 33°44' W 118°12'0 0.1
2016-Jun-08 18:32N 33°44' W 118°12'0 0.1
2016-Jun-08 17:32N 33°44' W 118°12'0 0.0
2016-Jun-08 16:32N 33°44' W 118°12'0 0.0
2016-Jun-08 15:32N 33°44' W 118°12'0 0.0
2016-Jun-08 14:32N 33°44' W 118°12'0 0.0
2016-Jun-08 13:32N 33°44' W 118°12'0 0.0
2016-Jun-08 12:29N 33°44' W 118°12'1 0.6
2016-Jun-08 11:34N 33°44' W 118°12'6 6.0
2016-Jun-08 10:34N 33°38' W 118°13'9 9.5
2016-Jun-08 09:34N 33°38' W 118°25'1211.7
2016-Jun-08 08:33N 33°43' W 118°37'1111.2
2016-Jun-08 07:32N 33°49' W 118°49'2812.5
2016-Jun-08 05:18N 34°03' W 119°18'8714.2
2016-Jun-07 23:10N 34°26' W 120°60'1014.3
2016-Jun-07 22:28N 34°29' W 121°11'1313.9
2016-Jun-07 21:33N 34°31' W 121°26'1414.3
2016-Jun-07 20:33N 34°34' W 121°43'1714.3
2016-Jun-07 19:22N 34°38' W 122°04'1315.9
2016-Jun-07 18:33N 34°40' W 122°19'1615.5
2016-Jun-07 17:34N 34°43' W 122°37'1413.0
2016-Jun-07 16:29N 34°46' W 122°54'1415.2
2016-Jun-07 15:33N 34°49' W 123°11'1615.1
2016-Jun-07 14:31N 34°53' W 123°29'1815.0
2016-Jun-07 13:20N 34°57' W 123°51'  

Dump ship's entire track history